Time;durP1;ratioP1;P1;durP2;ratioP2;P2;SDS_P1;SDS_P2;PMS_P1;PMS_P2;Temp;Humidity;BMP_temperature;BMP_pressure;BME280_temperature;BME280_humidity;BME280_pressure;Samples;Min_cycle;Max_cycle;Signal;HPM_P1;HPM_P2
2024/03/16 00:00:12;;;;;;;21.98;12.48;;;;;;;11.30;100.00;100594.66;6310921;28;20515;-72
2024/03/16 00:03:13;;;;;;;26.60;13.98;;;;;;;11.28;100.00;100593.06;6310927;28;20136;-72
2024/03/16 00:06:15;;;;;;;23.05;13.85;;;;;;;11.25;100.00;100594.06;6310376;28;20040;-73
2024/03/16 00:09:16;;;;;;;26.35;13.48;;;;;;;11.27;100.00;100586.97;6310254;28;20451;-73
2024/03/16 00:12:18;;;;;;;27.27;14.15;;;;;;;11.27;100.00;100578.22;6310491;28;20052;-73
2024/03/16 00:15:20;;;;;;;25.20;13.68;;;;;;;11.25;100.00;100585.34;6310272;28;20044;-72
2024/03/16 00:18:21;;;;;;;25.08;12.98;;;;;;;11.22;100.00;100582.88;6309841;28;20044;-73
2024/03/16 00:21:23;;;;;;;27.38;13.40;;;;;;;11.27;100.00;100583.47;6310215;28;20052;-72
2024/03/16 00:24:25;;;;;;;27.42;12.65;;;;;;;11.19;100.00;100578.66;6310288;28;20459;-72
2024/03/16 00:27:27;;;;;;;26.23;12.65;;;;;;;11.20;100.00;100576.88;6310647;28;20048;-72
2024/03/16 00:30:29;;;;;;;27.55;13.23;;;;;;;11.20;100.00;100587.41;6309747;28;20048;-72
2024/03/16 00:33:31;;;;;;;22.75;11.95;;;;;;;11.17;100.00;100581.41;6310401;28;20052;-73
2024/03/16 00:36:33;;;;;;;21.15;11.30;;;;;;;11.15;100.00;100582.41;6309669;28;20431;-72
2024/03/16 00:39:35;;;;;;;20.38;11.02;;;;;;;11.09;100.00;100586.25;6309759;28;20055;-72
2024/03/16 00:42:36;;;;;;;27.00;11.20;;;;;;;11.12;100.00;100585.19;6310034;28;20052;-73
2024/03/16 00:45:38;;;;;;;25.38;12.25;;;;;;;11.00;100.00;100584.16;6309298;28;20188;-72
2024/03/16 00:48:39;;;;;;;23.27;11.50;;;;;;;11.02;100.00;100592.78;6309837;28;20044;-72
2024/03/16 00:51:42;;;;;;;19.38;10.73;;;;;;;11.04;100.00;100588.31;6309151;28;20463;-72
2024/03/16 00:54:44;;;;;;;23.50;11.07;;;;;;;11.14;100.00;100589.44;6309626;28;20056;-72
2024/03/16 00:57:45;;;;;;;21.92;10.60;;;;;;;11.09;100.00;100583.63;6309383;28;20047;-72
2024/03/16 01:00:47;;;;;;;20.15;10.80;;;;;;;11.04;100.00;100582.19;6309141;28;20048;-72
2024/03/16 01:03:48;;;;;;;29.33;10.98;;;;;;;11.02;100.00;100579.63;6309467;28;20567;-72
2024/03/16 01:06:50;;;;;;;23.75;11.32;;;;;;;11.03;100.00;100589.22;6298234;28;20056;-72
2024/03/16 01:09:51;;;;;;;21.45;10.45;;;;;;;11.02;100.00;100587.53;6283795;28;20056;-72
2024/03/16 01:12:52;;;;;;;21.63;10.30;;;;;;;11.02;100.00;100584.06;6284389;28;20059;-72
2024/03/16 01:15:54;;;;;;;19.30;10.57;;;;;;;11.04;100.00;100582.19;6283906;28;20047;-72
2024/03/16 01:18:55;;;;;;;22.10;10.13;;;;;;;11.05;100.00;100589.16;6284008;28;20441;-72
2024/03/16 01:21:57;;;;;;;21.90;11.13;;;;;;;11.09;100.00;100586.25;6283726;28;20059;-72
2024/03/16 01:24:58;;;;;;;19.85;9.77;;;;;;;11.06;100.00;100586.41;6290890;28;20044;-72
2024/03/16 01:28:00;;;;;;;18.50;9.07;;;;;;;11.10;100.00;100589.72;6302715;28;20043;-72
2024/03/16 01:31:01;;;;;;;19.98;9.82;;;;;;;11.07;100.00;100590.72;6290481;28;20048;-72
2024/03/16 01:34:03;;;;;;;26.08;9.75;;;;;;;11.06;100.00;100583.78;6300109;28;20384;-72
2024/03/16 01:37:04;;;;;;;28.95;9.85;;;;;;;11.12;100.00;100593.09;6283190;28;20047;-73
2024/03/16 01:40:07;;;;;;;23.05;11.20;;;;;;;11.14;100.00;100583.34;6283212;28;20048;-72
2024/03/16 01:43:09;;;;;;;28.20;10.32;;;;;;;11.15;100.00;100582.41;6283666;28;20134;-72
2024/03/16 01:46:15;;;;;;;21.13;10.23;;;;;;;11.16;100.00;100584.09;6266635;28;20048;-72
2024/03/16 01:49:16;;;;;;;23.63;11.00;;;;;;;11.16;100.00;100578.84;6267941;28;20185;-72
2024/03/16 01:52:18;;;;;;;24.52;10.48;;;;;;;11.20;100.00;100582.13;6266663;28;20056;-72
2024/03/16 01:55:19;;;;;;;22.70;10.82;;;;;;;11.18;100.00;100584.88;6266308;28;20360;-72
2024/03/16 01:58:21;;;;;;;19.13;9.77;;;;;;;11.32;100.00;100581.44;6266484;28;20047;-72
2024/03/16 02:01:23;;;;;;;24.10;10.60;;;;;;;11.29;100.00;100571.91;6282777;28;20055;-72
2024/03/16 02:04:25;;;;;;;19.42;10.02;;;;;;;11.34;100.00;100569.84;6266782;28;20060;-72
2024/03/16 02:07:26;;;;;;;26.10;10.75;;;;;;;11.22;100.00;100577.63;6266714;28;20048;-72
2024/03/16 02:10:28;;;;;;;19.27;11.07;;;;;;;11.14;100.00;100573.66;6265940;28;20070;-75
2024/03/16 02:13:30;;;;;;;24.55;11.02;;;;;;;11.16;100.00;100576.19;6266547;28;20056;-72
2024/03/16 02:16:31;;;;;;;19.27;9.90;;;;;;;11.18;100.00;100579.59;6266132;28;20054;-72
2024/03/16 02:19:33;;;;;;;26.30;10.18;;;;;;;11.15;100.00;100580.63;6282654;28;20045;-73
2024/03/16 02:22:34;;;;;;;24.17;10.18;;;;;;;11.15;100.00;100579.78;6266296;28;20437;-72
2024/03/16 02:25:36;;;;;;;23.08;9.88;;;;;;;11.09;100.00;100581.00;6265882;28;20354;-72
2024/03/16 02:28:38;;;;;;;16.98;8.88;;;;;;;11.09;100.00;100581.00;6282884;28;20049;-72
2024/03/16 02:31:39;;;;;;;21.83;8.98;;;;;;;11.03;100.00;100575.22;6265829;28;20044;-72
2024/03/16 02:34:41;;;;;;;19.95;9.35;;;;;;;11.05;100.00;100578.63;6282481;28;20044;-73
2024/03/16 02:37:43;;;;;;;20.73;9.50;;;;;;;11.02;100.00;100577.00;6282443;28;20044;-72
2024/03/16 02:40:44;;;;;;;22.80;9.52;;;;;;;11.06;100.00;100578.53;6281811;28;20445;-73
2024/03/16 02:43:46;;;;;;;14.23;8.25;;;;;;;11.05;100.00;100579.47;6282445;28;20056;-73
2024/03/16 02:46:47;;;;;;;19.33;9.45;;;;;;;11.03;100.00;100583.09;6286058;28;20047;-72
2024/03/16 02:49:50;;;;;;;17.52;7.80;;;;;;;11.00;100.00;100586.78;6246252;22;20051;-76
2024/03/16 02:52:51;;;;;;;15.18;8.25;;;;;;;11.00;100.00;100578.91;6149014;28;20142;-76
2024/03/16 02:55:53;;;;;;;20.73;8.95;;;;;;;11.01;100.00;100585.00;6125427;28;20063;-77
2024/03/16 02:58:55;;;;;;;19.35;8.18;;;;;;;10.99;100.00;100586.84;6114251;28;20047;-77
2024/03/16 03:01:57;;;;;;;24.98;8.98;;;;;;;10.96;100.00;100579.16;6144631;28;20051;-76
2024/03/16 03:04:58;;;;;;;13.73;7.15;;;;;;;10.92;100.00;100589.84;6124461;29;20062;-78
2024/03/16 03:08:00;;;;;;;15.20;7.45;;;;;;;10.91;100.00;100585.53;6210638;28;20356;-76
2024/03/16 03:11:03;;;;;;;24.25;7.38;;;;;;;10.85;100.00;100588.47;6215379;28;20052;-75
2024/03/16 03:14:06;;;;;;;17.27;8.35;;;;;;;10.81;100.00;100594.88;6214629;28;20079;-75
2024/03/16 03:17:08;;;;;;;21.30;7.57;;;;;;;10.79;100.00;100596.72;6213309;28;20328;-76
2024/03/16 03:20:10;;;;;;;26.00;8.38;;;;;;;10.70;100.00;100592.00;6215202;28;20138;-76
2024/03/16 03:23:12;;;;;;;21.08;8.18;;;;;;;10.70;100.00;100581.47;6215258;28;20130;-75
2024/03/16 03:26:13;;;;;;;15.13;7.07;;;;;;;10.70;100.00;100584.09;6215153;28;20048;-76
2024/03/16 03:29:15;;;;;;;20.20;8.40;;;;;;;10.63;100.00;100588.03;6147799;29;20403;-77
2024/03/16 03:32:16;;;;;;;23.80;8.32;;;;;;;10.58;100.00;100590.91;6178436;28;20051;-76
2024/03/16 03:35:18;;;;;;;24.75;9.27;;;;;;;10.53;100.00;100592.06;6164876;28;20043;-76
2024/03/16 03:38:19;;;;;;;18.33;9.35;;;;;;;10.45;100.00;100592.53;6140112;28;20058;-75
2024/03/16 03:41:21;;;;;;;19.02;9.93;;;;;;;10.49;100.00;100601.06;6131734;28;20367;-77
2024/03/16 03:44:24;;;;;;;22.45;10.07;;;;;;;10.47;100.00;100593.28;6129441;28;20067;-76
2024/03/16 03:47:40;;;;;;;19.73;8.93;;;;;;;10.46;100.00;100593.38;6132991;28;20104;-77
2024/03/16 03:50:41;;;;;;;20.65;9.63;;;;;;;10.49;100.00;100599.31;6133807;28;20051;-76
2024/03/16 03:53:43;;;;;;;21.40;9.73;;;;;;;10.56;100.00;100600.66;6134984;28;20355;-76
2024/03/16 03:56:44;;;;;;;23.58;10.65;;;;;;;10.55;100.00;100603.38;6135972;28;20069;-75
2024/03/16 03:59:46;;;;;;;21.75;11.07;;;;;;;10.59;100.00;100608.38;6135962;28;20058;-77
2024/03/16 04:02:47;;;;;;;24.23;11.90;;;;;;;10.62;100.00;100612.59;6136157;28;20360;-76
2024/03/16 04:05:51;;;;;;;23.35;11.15;;;;;;;10.63;100.00;100616.94;6136057;28;20059;-77
2024/03/16 04:08:53;;;;;;;22.67;11.48;;;;;;;10.64;100.00;100611.59;6136127;28;20134;-77
2024/03/16 04:11:54;;;;;;;26.52;12.35;;;;;;;10.74;100.00;100616.31;6135750;28;20056;-77
2024/03/16 04:14:56;;;;;;;22.45;11.00;;;;;;;10.73;100.00;100617.28;6136013;28;20596;-76
2024/03/16 04:17:57;;;;;;;21.38;10.18;;;;;;;10.71;100.00;100617.34;6135696;28;20054;-77
2024/03/16 04:21:02;;;;;;;21.58;11.30;;;;;;;10.71;100.00;100614.69;6135416;28;20055;-77
2024/03/16 04:24:04;;;;;;;33.05;12.07;;;;;;;10.74;100.00;100624.22;6135825;28;20406;-75
2024/03/16 04:27:05;;;;;;;29.65;11.60;;;;;;;10.73;100.00;100625.16;6135784;28;20047;-77
2024/03/16 04:30:07;;;;;;;21.48;11.55;;;;;;;10.65;100.00;100615.91;6130967;28;20146;-77
2024/03/16 04:33:08;;;;;;;22.98;11.90;;;;;;;10.62;100.00;100623.94;6133945;29;20126;-76
2024/03/16 04:36:10;;;;;;;28.17;13.38;;;;;;;10.58;100.00;100617.19;6135277;29;20051;-77
2024/03/16 04:39:11;;;;;;;20.63;11.40;;;;;;;10.54;100.00;100622.69;6135125;29;20058;-77
2024/03/16 04:42:13;;;;;;;23.17;11.82;;;;;;;10.58;100.00;100609.31;6135636;28;20455;-77
2024/03/16 04:45:14;;;;;;;26.90;11.45;;;;;;;10.57;100.00;100623.34;6135090;29;20064;-77
2024/03/16 04:48:16;;;;;;;28.10;12.00;;;;;;;10.57;100.00;100622.50;6135467;28;20062;-79
2024/03/16 04:51:17;;;;;;;24.85;11.77;;;;;;;10.55;100.00;100616.50;6134765;29;20058;-79
2024/03/16 04:54:19;;;;;;;23.73;12.23;;;;;;;10.56;100.00;100624.28;6135265;29;20359;-79
2024/03/16 04:57:21;;;;;;;24.48;11.57;;;;;;;10.56;100.00;100623.44;6134703;29;20078;-77
2024/03/16 05:00:23;;;;;;;25.80;11.70;;;;;;;10.55;100.00;100625.22;6134700;28;20051;-77
2024/03/16 05:03:24;;;;;;;23.10;12.00;;;;;;;10.55;100.00;100627.03;6135423;29;20138;-78
2024/03/16 05:06:26;;;;;;;23.48;11.45;;;;;;;10.57;100.00;100633.88;6135035;29;20062;-78
2024/03/16 05:09:28;;;;;;;33.05;12.20;;;;;;;10.51;100.00;100630.75;6134617;29;20463;-78
2024/03/16 05:12:29;;;;;;;22.38;11.32;;;;;;;10.53;100.00;100637.59;6134885;29;20051;-79
2024/03/16 05:15:31;;;;;;;22.40;11.45;;;;;;;10.57;100.00;100636.50;6134647;29;20137;-78
2024/03/16 05:18:32;;;;;;;28.58;11.55;;;;;;;10.60;100.00;100628.44;6134669;29;20051;-78
2024/03/16 05:21:34;;;;;;;32.50;13.00;;;;;;;10.55;100.00;100638.38;6133938;29;20062;-77
2024/03/16 05:24:35;;;;;;;27.40;11.55;;;;;;;10.55;100.00;100638.38;6134267;29;20056;-78
2024/03/16 05:27:37;;;;;;;24.00;12.05;;;;;;;10.56;100.00;100633.97;6133599;29;20356;-78
2024/03/16 05:30:38;;;;;;;22.98;11.93;;;;;;;10.57;100.00;100643.53;6133641;29;20055;-78
2024/03/16 05:33:40;;;;;;;23.05;11.05;;;;;;;10.48;100.00;100644.03;6134670;29;20051;-78
2024/03/16 05:36:42;;;;;;;25.40;10.73;;;;;;;10.51;100.00;100642.09;6134142;29;20439;-77
2024/03/16 05:39:43;;;;;;;21.80;11.23;;;;;;;10.48;100.00;100650.13;6134070;29;20093;-78
2024/03/16 05:42:45;;;;;;;24.83;11.48;;;;;;;10.50;100.00;100645.66;6133945;29;20051;-78
2024/03/16 05:45:49;;;;;;;27.40;12.27;;;;;;;10.47;100.00;100658.13;6219932;28;20062;-77
2024/03/16 05:48:51;;;;;;;30.90;11.55;;;;;;;10.50;100.00;100665.84;6131674;28;20050;-76
2024/03/16 05:51:52;;;;;;;26.95;11.20;;;;;;;10.54;100.00;100670.84;6130102;28;20051;-80
2024/03/16 05:54:54;;;;;;;23.17;10.90;;;;;;;10.47;100.00;100679.97;6133813;28;20073;-79
2024/03/16 05:57:56;;;;;;;24.30;11.15;;;;;;;10.45;100.00;100686.25;6133972;28;20074;-79
2024/03/16 06:00:57;;;;;;;19.95;9.85;;;;;;;10.44;100.00;100688.00;6134988;28;20051;-78
2024/03/16 06:03:59;;;;;;;20.35;10.15;;;;;;;10.44;100.00;100698.53;6150134;28;20043;-77
2024/03/16 06:07:00;;;;;;;17.05;9.27;;;;;;;10.44;100.00;100713.44;6129348;28;20058;-77
2024/03/16 06:10:02;;;;;;;20.95;9.55;;;;;;;10.39;100.00;100716.31;6143989;28;20474;-77
2024/03/16 06:13:04;;;;;;;20.30;8.88;;;;;;;10.42;100.00;100724.03;6133826;28;20051;-77
2024/03/16 06:16:05;;;;;;;12.45;5.85;;;;;;;10.38;100.00;100723.34;6136685;28;20074;-78
2024/03/16 06:19:07;;;;;;;12.52;5.75;;;;;;;10.39;100.00;100732.91;6206078;28;20048;-79
2024/03/16 06:22:09;;;;;;;15.00;6.22;;;;;;;10.41;100.00;100736.34;6110152;29;20056;-77
2024/03/16 06:25:12;;;;;;;12.48;5.78;;;;;;;10.33;100.00;100748.16;6127319;29;20336;-77
2024/03/16 06:28:16;;;;;;;14.50;5.53;;;;;;;10.31;100.00;100765.75;6215313;28;20078;-78
2024/03/16 06:31:25;;;;;;;4.70;2.50;;;;;;;9.88;100.00;100781.91;6214256;28;20209;-78
2024/03/16 06:34:27;;;;;;;5.55;2.70;;;;;;;9.60;100.00;100771.09;6216048;28;20138;-77
2024/03/16 06:37:28;;;;;;;4.93;2.35;;;;;;;9.72;100.00;100806.34;6141988;28;20050;-78
2024/03/16 06:40:30;;;;;;;5.10;1.60;;;;;;;9.59;100.00;100799.09;6133607;29;20051;-77
2024/03/16 06:43:32;;;;;;;4.10;2.13;;;;;;;9.50;100.00;100817.06;6123792;28;20378;-77
2024/03/16 06:46:33;;;;;;;6.55;2.42;;;;;;;9.49;100.00;100829.28;6125279;28;20047;-76
2024/03/16 06:49:35;;;;;;;4.30;1.80;;;;;;;9.45;100.00;100834.75;6132555;28;20058;-77
2024/03/16 06:52:36;;;;;;;4.05;2.25;;;;;;;9.24;100.00;100840.09;6138944;28;20441;-76
2024/03/16 06:55:38;;;;;;;3.15;1.55;;;;;;;9.24;100.00;100847.13;6115343;28;20056;-76
2024/03/16 06:58:40;;;;;;;3.88;2.33;;;;;;;9.38;100.00;100865.69;6109544;28;20059;-76
2024/03/16 07:01:42;;;;;;;3.92;2.25;;;;;;;9.40;100.00;100862.09;6108998;28;20047;-77
2024/03/16 07:04:43;;;;;;;7.05;2.65;;;;;;;9.28;100.00;100875.75;6111943;29;20051;-77
2024/03/16 07:07:45;;;;;;;3.97;2.35;;;;;;;9.24;100.00;100883.84;6113781;29;20059;-76
2024/03/16 07:10:46;;;;;;;5.65;2.72;;;;;;;9.20;100.00;100895.38;6111885;28;20058;-76
2024/03/16 07:13:48;;;;;;;7.20;3.40;;;;;;;9.15;100.00;100896.44;6110338;28;20055;-76
2024/03/16 07:16:49;;;;;;;11.23;5.60;;;;;;;9.00;100.00;100901.53;6128635;28;20059;-76
2024/03/16 07:19:52;;;;;;;4.63;2.72;;;;;;;9.12;100.00;100914.06;6143872;28;20137;-76
2024/03/16 07:22:54;;;;;;;7.00;2.78;;;;;;;9.13;100.00;100915.78;6152257;28;20048;-77
2024/03/16 07:25:56;;;;;;;5.40;2.88;;;;;;;9.02;100.00;100921.50;6120057;28;20051;-77
2024/03/16 07:28:58;;;;;;;6.65;2.90;;;;;;;9.03;100.00;100924.97;6127591;28;20504;-76
2024/03/16 07:31:59;;;;;;;3.92;2.28;;;;;;;9.01;100.00;100939.91;6112792;29;20047;-76
2024/03/16 07:35:01;;;;;;;6.15;3.17;;;;;;;9.12;100.00;100946.38;6112907;28;20467;-77
2024/03/16 07:38:02;;;;;;;7.78;3.17;;;;;;;9.17;100.00;100953.19;6113152;28;20048;-74
2024/03/16 07:41:04;;;;;;;4.35;2.70;;;;;;;9.13;100.00;100966.47;6131565;28;20459;-76
2024/03/16 07:44:06;;;;;;;4.30;2.30;;;;;;;9.16;100.00;100970.69;6147265;28;20473;-75
2024/03/16 07:47:07;;;;;;;4.63;2.10;;;;;;;9.10;100.00;100986.69;6208613;28;20047;-74
2024/03/16 07:50:09;;;;;;;2.75;1.77;;;;;;;9.13;100.00;101004.94;6144120;28;20059;-75
2024/03/16 07:53:11;;;;;;;2.45;1.05;;;;;;;8.65;100.00;101021.78;6207540;28;20055;-76
2024/03/16 07:56:12;;;;;;;4.43;1.02;;;;;;;8.45;100.00;101029.59;6135856;28;20126;-76
2024/03/16 07:59:13;;;;;;;2.47;0.75;;;;;;;8.20;100.00;101032.28;6214974;28;20043;-75
2024/03/16 08:02:15;;;;;;;0.63;0.30;;;;;;;8.05;100.00;101042.44;6140135;28;20048;-74
2024/03/16 08:05:16;;;;;;;1.58;0.77;;;;;;;8.12;100.00;101056.16;6217977;28;20122;-76
2024/03/16 08:08:18;;;;;;;3.72;1.58;;;;;;;8.12;100.00;101054.38;6214868;28;20043;-76
2024/03/16 08:11:20;;;;;;;1.52;0.75;;;;;;;8.11;100.00;101064.91;6134883;28;20052;-77
2024/03/16 08:14:22;;;;;;;4.70;1.30;;;;;;;8.10;100.00;101071.91;6135615;28;20197;-77
2024/03/16 08:17:24;;;;;;;4.53;0.88;;;;;;;8.15;100.00;101079.59;6135716;29;20051;-77
2024/03/16 08:20:25;;;;;;;2.55;0.70;;;;;;;8.22;100.00;101086.31;6157739;28;20054;-76
2024/03/16 08:23:28;;;;;;;3.97;1.20;;;;;;;8.31;100.00;101096.44;6137558;28;21845;-76
2024/03/16 08:26:29;;;;;;;3.00;1.48;;;;;;;8.29;100.00;101100.88;6152354;28;20047;-76
2024/03/16 08:29:31;;;;;;;5.10;1.20;;;;;;;8.35;100.00;101102.38;6134966;28;20066;-77
2024/03/16 08:32:32;;;;;;;9.60;0.95;;;;;;;8.40;100.00;101113.56;6137526;28;20051;-76
2024/03/16 08:35:35;;;;;;;8.85;1.70;;;;;;;8.49;100.00;101126.31;6135079;29;20466;-76
2024/03/16 08:38:36;;;;;;;15.75;2.50;;;;;;;8.64;100.00;101144.06;6135125;28;20051;-76
2024/03/16 08:41:38;;;;;;;6.63;1.08;;;;;;;8.46;100.00;101157.88;6117606;28;20062;-77
2024/03/16 08:44:39;;;;;;;17.98;2.05;;;;;;;8.28;100.00;101167.25;6112045;28;20599;-77
2024/03/16 08:47:41;;;;;;;6.18;0.90;;;;;;;8.02;100.00;101176.03;6114023;28;20059;-78
2024/03/16 08:50:43;;;;;;;7.47;1.83;;;;;;;7.85;100.00;101183.63;6125766;29;20184;-77
2024/03/16 08:53:45;;;;;;;6.88;1.27;;;;;;;7.74;100.00;101180.53;6127601;28;20074;-78
2024/03/16 08:56:47;;;;;;;9.88;1.40;;;;;;;7.73;100.00;101194.53;6126337;29;20058;-77
2024/03/16 08:59:48;;;;;;;11.05;2.08;;;;;;;7.80;100.00;101189.03;6134392;28;20051;-77
2024/03/16 09:02:52;;;;;;;14.23;2.42;;;;;;;7.79;100.00;101199.53;6135039;28;20074;-77
2024/03/16 09:05:53;;;;;;;10.68;2.17;;;;;;;8.03;100.00;101196.06;6135111;28;20457;-77
2024/03/16 09:08:58;;;;;;;7.00;1.15;;;;;;;8.10;100.00;101208.03;6135235;28;20047;-77
2024/03/16 09:11:59;;;;;;;11.10;1.05;;;;;;;8.11;100.00;101224.59;6135001;28;20390;-77
2024/03/16 09:15:01;;;;;;;5.43;0.85;;;;;;;8.33;100.00;101209.81;6134606;28;20059;-76
2024/03/16 09:18:03;;;;;;;12.65;1.65;;;;;;;8.33;100.00;101235.16;6135224;28;20055;-76
2024/03/16 09:21:06;;;;;;;8.20;0.90;;;;;;;8.46;100.00;101236.44;6134620;28;20062;-77
2024/03/16 09:24:07;;;;;;;5.78;0.90;;;;;;;8.48;100.00;101242.47;6135025;28;20400;-77
2024/03/16 09:27:09;;;;;;;3.42;1.02;;;;;;;8.36;100.00;101249.03;6134481;28;20074;-77
2024/03/16 09:30:11;;;;;;;7.53;1.48;;;;;;;8.38;100.00;101257.66;6134255;28;20053;-77
2024/03/16 09:33:12;;;;;;;5.53;1.27;;;;;;;8.23;100.00;101268.69;6134868;28;20051;-77
2024/03/16 09:36:14;;;;;;;9.13;1.17;;;;;;;8.33;100.00;101270.06;6134492;28;20178;-77
2024/03/16 09:39:16;;;;;;;6.30;0.85;;;;;;;8.44;100.00;101277.53;6133884;28;20348;-76
2024/03/16 09:42:21;;;;;;;3.80;0.73;;;;;;;8.47;100.00;101277.44;6134443;29;20499;-75
2024/03/16 09:45:23;;;;;;;3.15;1.00;;;;;;;8.55;100.00;101295.50;6134692;29;20055;-76
2024/03/16 09:48:24;;;;;;;6.10;0.80;;;;;;;8.49;100.00;101301.81;6145616;28;20047;-75
2024/03/16 09:51:26;;;;;;;4.93;1.10;;;;;;;8.49;100.00;101308.81;6164687;28;20106;-75
2024/03/16 09:54:28;;;;;;;6.28;0.50;;;;;;;8.56;100.00;101320.78;6165710;28;20352;-75
2024/03/16 09:57:30;;;;;;;3.90;0.68;;;;;;;8.41;100.00;101327.44;6165213;28;20051;-76
2024/03/16 10:00:31;;;;;;;4.70;1.00;;;;;;;8.50;100.00;101334.13;6165610;28;20444;-76
2024/03/16 10:03:33;;;;;;;6.45;1.55;;;;;;;8.58;100.00;101335.56;6168172;28;20057;-76
2024/03/16 10:06:34;;;;;;;3.47;0.88;;;;;;;8.58;100.00;101339.91;6170284;28;20051;-76
2024/03/16 10:09:36;;;;;;;5.63;0.82;;;;;;;8.58;100.00;101337.28;6167520;28;20340;-77
2024/03/16 10:12:39;;;;;;;3.00;0.85;;;;;;;8.48;100.00;101349.00;6165638;28;20078;-76
2024/03/16 10:15:43;;;;;;;9.10;0.88;;;;;;;8.53;100.00;101357.56;6165613;28;20154;-76
2024/03/16 10:18:45;;;;;;;6.00;1.08;;;;;;;8.59;100.00;101365.22;6165582;28;20051;-76
2024/03/16 10:21:46;;;;;;;6.78;0.80;;;;;;;8.69;100.00;101365.75;6165243;28;20058;-76
2024/03/16 10:24:49;;;;;;;7.35;1.50;;;;;;;8.86;100.00;101366.88;6165480;28;20056;-76
2024/03/16 10:27:51;;;;;;;14.80;1.33;;;;;;;8.79;100.00;101375.00;6165663;28;20508;-77
2024/03/16 10:30:52;;;;;;;2.78;0.75;;;;;;;8.73;100.00;101381.31;6164760;28;20051;-76
2024/03/16 10:33:54;;;;;;;6.95;1.05;;;;;;;8.67;100.00;101368.41;6165490;28;20058;-76
2024/03/16 10:36:56;;;;;;;3.42;0.90;;;;;;;8.68;100.00;101390.25;6164939;28;20499;-75
2024/03/16 10:39:57;;;;;;;3.55;0.70;;;;;;;8.72;100.00;101391.81;6164791;28;20078;-75
2024/03/16 10:43:01;;;;;;;8.38;0.52;;;;;;;8.59;100.00;101399.28;6165203;28;20047;-75
2024/03/16 10:46:05;;;;;;;6.68;1.35;;;;;;;8.60;100.00;101401.00;6174030;28;20057;-75
2024/03/16 10:49:07;;;;;;;5.10;1.08;;;;;;;8.62;100.00;101407.88;6172786;28;20058;-75
2024/03/16 10:52:09;;;;;;;3.22;0.57;;;;;;;8.82;100.00;101411.59;6173166;28;20055;-75
2024/03/16 10:55:11;;;;;;;4.85;1.02;;;;;;;8.98;100.00;101406.63;6189004;28;20184;-75
2024/03/16 10:58:18;;;;;;;3.25;0.60;;;;;;;9.13;100.00;101422.69;6189042;28;20344;-75
2024/03/16 11:01:20;;;;;;;2.60;0.80;;;;;;;9.10;100.00;101425.41;6189497;28;20204;-75
2024/03/16 11:04:22;;;;;;;10.00;2.10;;;;;;;9.04;100.00;101433.50;6177124;28;20216;-76
2024/03/16 11:07:24;;;;;;;2.60;0.73;;;;;;;9.08;100.00;101442.09;6177154;28;20055;-75
2024/03/16 11:10:39;;;;;;;8.68;0.95;;;;;;;9.30;100.00;101443.03;6176635;28;20146;-75
2024/03/16 11:13:41;;;;;;;3.80;0.80;;;;;;;9.31;100.00;101452.63;6177166;28;20097;-76
2024/03/16 11:16:43;;;;;;;1.67;0.73;;;;;;;9.37;100.00;101448.91;6176775;28;20424;-77
2024/03/16 11:19:45;;;;;;;3.03;0.65;;;;;;;9.53;100.00;101450.03;6192445;28;20043;-76
2024/03/16 11:22:46;;;;;;;3.33;0.85;;;;;;;9.53;100.00;101459.69;6176742;28;20451;-76
2024/03/16 11:25:48;;;;;;;2.60;0.75;;;;;;;9.69;100.00;101450.31;6176732;28;20054;-75
2024/03/16 11:28:50;;;;;;;5.93;0.77;;;;;;;9.68;100.00;101467.00;6176709;28;20180;-76
2024/03/16 11:31:54;;;;;;;3.90;0.75;;;;;;;9.64;100.00;101463.63;6157890;28;20055;-76
2024/03/16 11:34:55;;;;;;;8.35;1.35;;;;;;;9.43;100.00;101464.41;6136890;28;20133;-76
2024/03/16 11:37:57;;;;;;;6.97;1.13;;;;;;;9.10;100.00;101467.34;6168461;28;20051;-77
2024/03/16 11:40:57;;;;;;;5.20;0.80;;;;;;;9.19;100.00;101475.81;6168048;28;20050;-76
2024/03/16 11:43:59;;;;;;;5.78;0.90;;;;;;;9.19;100.00;101479.28;6168578;28;20055;-75
2024/03/16 11:47:04;;;;;;;4.30;1.05;;;;;;;9.24;100.00;101484.38;6168422;28;20436;-76
2024/03/16 11:50:06;;;;;;;3.40;0.90;;;;;;;9.23;100.00;101485.28;6167434;28;20149;-75
2024/03/16 11:53:08;;;;;;;8.23;1.40;;;;;;;9.29;100.00;101488.53;6168340;28;20058;-76
2024/03/16 11:56:10;;;;;;;5.30;0.88;;;;;;;9.49;100.00;101486.94;6167799;28;20363;-75
2024/03/16 11:59:12;;;;;;;2.92;1.00;;;;;;;9.74;100.00;101500.88;6168141;28;20054;-75
2024/03/16 12:02:12;;;;;;;4.13;0.88;;;;;;;9.75;100.00;101506.97;6168223;28;20047;-75
2024/03/16 12:05:14;;;;;;;3.67;0.75;;;;;;;9.70;100.00;101514.16;6168330;28;20055;-74
2024/03/16 12:08:15;;;;;;;4.03;0.75;;;;;;;9.76;100.00;101519.16;6168104;28;20458;-75
2024/03/16 12:11:17;;;;;;;5.18;0.85;;;;;;;9.74;100.00;101515.75;6167474;28;20055;-75
2024/03/16 12:14:18;;;;;;;8.18;0.68;;;;;;;9.80;100.00;101526.88;6167575;28;20148;-76
2024/03/16 12:17:20;;;;;;;2.92;0.60;;;;;;;9.87;100.00;101532.75;6167947;28;20058;-76
2024/03/16 12:20:22;;;;;;;7.05;0.75;;;;;;;9.83;100.00;101534.66;6167442;28;20055;-76
2024/03/16 12:23:24;;;;;;;6.43;1.00;;;;;;;9.82;100.00;101532.09;6167612;28;20051;-75
2024/03/16 12:26:26;;;;;;;4.53;0.88;;;;;;;9.95;100.00;101521.94;6167679;28;20078;-75
2024/03/16 12:29:28;;;;;;;6.43;0.95;;;;;;;10.12;100.00;101527.41;6167157;28;20101;-76
2024/03/16 12:32:29;;;;;;;5.65;0.80;;;;;;;10.18;100.00;101528.97;6167835;28;20055;-75
2024/03/16 12:35:32;;;;;;;0.85;0.55;;;;;;;10.38;100.00;101527.28;6167262;28;20062;-75
2024/03/16 12:38:33;;;;;;;0.57;0.43;;;;;;;10.41;100.00;101532.41;6167203;28;20138;-76
2024/03/16 12:41:36;;;;;;;4.60;1.15;;;;;;;10.57;100.00;101539.69;6167384;28;20059;-76
2024/03/16 12:44:36;;;;;;;6.07;1.52;;;;;;;10.59;100.00;101543.13;6166896;28;20402;-75
2024/03/16 12:47:39;;;;;;;3.50;1.48;;;;;;;10.49;100.00;101547.00;6150640;28;20055;-76
2024/03/16 12:50:41;;;;;;;1.95;0.90;;;;;;;10.42;100.00;101570.06;6129472;28;20074;-77
2024/03/16 12:53:42;;;;;;;4.47;1.25;;;;;;;10.43;100.00;101549.88;6167278;28;20062;-76
2024/03/16 12:56:47;;;;;;;5.38;1.23;;;;;;;10.52;100.00;101560.88;6167079;28;20058;-77
2024/03/16 12:59:49;;;;;;;9.10;1.83;;;;;;;10.52;100.00;101563.50;6166572;28;20043;-77
2024/03/16 13:02:50;;;;;;;2.40;1.40;;;;;;;10.84;100.00;101561.34;6170014;28;20055;-76
2024/03/16 13:05:51;;;;;;;4.55;1.17;;;;;;;11.59;100.00;101564.25;6151891;28;20047;-76
2024/03/16 13:08:52;;;;;;;11.20;1.80;;;;;;;11.50;95.88;101572.56;6172468;28;20340;-76
2024/03/16 13:11:54;;;;;;;6.43;2.45;;;;;;;11.58;99.92;101567.81;6202452;28;20140;-75
2024/03/16 13:14:55;;;;;;;7.03;1.13;;;;;;;11.72;95.50;101561.94;6202465;28;20439;-76
2024/03/16 13:17:57;;;;;;;3.80;1.90;;;;;;;11.70;86.23;101563.78;6202534;28;20054;-78
2024/03/16 13:20:58;;;;;;;4.47;1.20;;;;;;;11.84;90.57;101557.91;6202157;28;20047;-77
2024/03/16 13:24:00;;;;;;;11.88;2.97;;;;;;;12.09;86.51;101552.38;6202628;28;20051;-76
2024/03/16 13:27:03;;;;;;;6.05;1.52;;;;;;;11.63;83.15;101562.34;6202067;28;20047;-76
2024/03/16 13:30:05;;;;;;;5.72;1.40;;;;;;;11.45;81.04;101565.81;6201588;28;20082;-75
2024/03/16 13:33:08;;;;;;;5.05;1.10;;;;;;;11.34;84.64;101563.63;6202425;28;20189;-76
2024/03/16 13:36:09;;;;;;;1.75;1.33;;;;;;;11.40;82.38;101561.59;6201768;28;20068;-75
2024/03/16 13:39:10;;;;;;;5.07;0.70;;;;;;;12.29;79.08;101556.69;6201534;28;20047;-77
2024/03/16 13:42:13;;;;;;;3.85;0.73;;;;;;;12.60;74.07;101556.09;6201809;28;20431;-77
2024/03/16 13:45:14;;;;;;;2.97;0.85;;;;;;;12.09;73.65;101553.22;6201226;28;20050;-76
2024/03/16 13:48:15;;;;;;;5.40;1.52;;;;;;;12.03;77.55;101558.75;6225872;28;20060;-76
2024/03/16 13:51:17;;;;;;;3.40;0.77;;;;;;;11.59;79.15;101568.69;6225590;28;20049;-76